createdAt,value
2023-03-06T00:00:58.963Z,99847.78
2023-03-06T00:03:28.316Z,99847.03
2023-03-06T00:05:59.613Z,99858.38
2023-03-06T00:08:30.411Z,99842.75
2023-03-06T00:10:57.452Z,99844.50
2023-03-06T00:13:27.156Z,99858.41
2023-03-06T00:15:54.090Z,99854.91
2023-03-06T00:18:21.010Z,99850.56
2023-03-06T00:20:48.035Z,99850.59
2023-03-06T00:23:15.187Z,99844.47
2023-03-06T00:25:45.840Z,99838.34
2023-03-06T00:28:15.241Z,99847.00
2023-03-06T00:30:44.761Z,99839.22
2023-03-06T00:33:12.530Z,99835.69
2023-03-06T00:35:43.074Z,99827.06
2023-03-06T00:38:16.035Z,99838.41
2023-03-06T00:40:43.261Z,99823.53
2023-03-06T00:43:10.499Z,99829.59
2023-03-06T00:45:37.670Z,99830.38
2023-03-06T00:48:07.855Z,99825.16
2023-03-06T00:50:35.721Z,99827.84
2023-03-06T00:53:02.645Z,99812.06
2023-03-06T00:55:31.140Z,99812.94
2023-03-06T00:57:58.194Z,99822.62
2023-03-06T01:00:25.293Z,99815.66
2023-03-06T01:02:53.872Z,99815.66
2023-03-06T01:05:21.181Z,99817.28
2023-03-06T01:07:48.218Z,99810.37
2023-03-06T01:10:15.140Z,99807.69
2023-03-06T01:12:43.211Z,99805.03
2023-03-06T01:15:12.960Z,99802.59
2023-03-06T01:17:40.028Z,99800.94
2023-03-06T01:20:07.600Z,99794.81
2023-03-06T01:22:34.535Z,99786.19
2023-03-06T01:25:01.567Z,99786.88
2023-03-06T01:27:28.498Z,99772.87
2023-03-06T01:29:55.660Z,99775.41
2023-03-06T01:32:22.652Z,99779.75
2023-03-06T01:34:49.530Z,99774.59
2023-03-06T01:37:16.690Z,99765.88
2023-03-06T01:39:43.592Z,99771.03
2023-03-06T01:42:10.530Z,99759.78
2023-03-06T01:44:37.512Z,99766.66
2023-03-06T01:47:04.593Z,99766.66
2023-03-06T01:49:36.596Z,99759.63
2023-03-06T01:52:13.994Z,99761.44
2023-03-06T01:54:56.685Z,99761.50
2023-03-06T01:57:49.216Z,99753.56
2023-03-06T02:00:24.579Z,99748.31
2023-03-06T02:03:06.704Z,99755.31
2023-03-06T02:05:34.018Z,99756.44
2023-03-06T02:08:06.224Z,99759.09
2023-03-06T02:10:33.610Z,99753.00
2023-03-06T02:13:03.098Z,99752.09
2023-03-06T02:15:34.054Z,99747.78
2023-03-06T02:18:02.488Z,99748.63
2023-03-06T02:20:38.332Z,99754.78
2023-03-06T02:23:56.121Z,99752.16
2023-03-06T02:26:28.969Z,99747.00
2023-03-06T02:28:57.758Z,99747.00
2023-03-06T02:31:29.036Z,99748.66
2023-03-06T02:34:27.588Z,99743.34
2023-03-06T02:37:04.215Z,99752.16
2023-03-06T02:39:34.601Z,99736.34
2023-03-06T02:42:01.486Z,99727.63
2023-03-06T02:44:29.198Z,99724.97
2023-03-06T02:46:56.503Z,99730.22
2023-03-06T02:49:26.069Z,99723.12
2023-03-06T02:51:55.924Z,99719.66
2023-03-06T02:54:22.776Z,99720.56
2023-03-06T02:56:49.621Z,99717.94
2023-03-06T02:59:16.602Z,99712.81
2023-03-06T03:01:45.729Z,99710.47
2023-03-06T03:04:12.760Z,99708.72
2023-03-06T03:06:39.895Z,99706.09
2023-03-06T03:09:07.801Z,99711.34
2023-03-06T03:11:35.020Z,99704.37
2023-03-06T03:14:01.987Z,99702.66
2023-03-06T03:16:29.047Z,99712.97
2023-03-06T03:18:55.968Z,99719.06
2023-03-06T03:21:23.005Z,99710.47
2023-03-06T03:23:50.172Z,99711.37
2023-03-06T03:26:28.042Z,99708.66
2023-03-06T03:29:14.945Z,99719.97
2023-03-06T03:31:41.985Z,99709.44
2023-03-06T03:34:08.972Z,99714.62
2023-03-06T03:36:36.397Z,99706.72
2023-03-06T03:39:06.486Z,99702.38
2023-03-06T03:41:36.579Z,99698.75
2023-03-06T03:44:03.516Z,99701.63
2023-03-06T03:46:30.710Z,99702.59
2023-03-06T03:48:57.574Z,99700.88
2023-03-06T03:51:25.656Z,99695.66
2023-03-06T03:54:09.866Z,99695.66
2023-03-06T03:56:36.847Z,99683.34
2023-03-06T03:59:05.205Z,99688.37
2023-03-06T04:01:32.110Z,99680.69
2023-03-06T04:03:59.016Z,99690.13
2023-03-06T04:06:25.931Z,99689.41
2023-03-06T04:08:52.857Z,99678.78
2023-03-06T04:11:19.760Z,99684.88
2023-03-06T04:13:46.730Z,99686.75
2023-03-06T04:16:13.972Z,99683.22
2023-03-06T04:18:41.122Z,99693.06
2023-03-06T04:21:09.956Z,99700.03
2023-03-06T04:23:36.851Z,99696.56
2023-03-06T04:26:04.205Z,99690.47
2023-03-06T04:28:31.301Z,99690.41
2023-03-06T04:31:02.817Z,99679.88
2023-03-06T04:33:29.884Z,99683.47
2023-03-06T04:35:56.988Z,99668.53
2023-03-06T04:38:23.836Z,99671.19
2023-03-06T04:40:50.833Z,99664.22
2023-03-06T04:43:18.188Z,99663.22
2023-03-06T04:45:45.273Z,99657.28
2023-03-06T04:48:20.002Z,99655.59
2023-03-06T04:50:47.314Z,99658.16
2023-03-06T04:53:17.447Z,99654.81
2023-03-06T04:55:46.667Z,99651.25
2023-03-06T04:58:14.616Z,99652.16
2023-03-06T05:00:41.552Z,99651.25
2023-03-06T05:03:09.692Z,99637.19
2023-03-06T05:05:36.573Z,99646.75
2023-03-06T05:08:03.484Z,99646.91
2023-03-06T05:10:30.510Z,99644.25
2023-03-06T05:12:57.456Z,99638.22
2023-03-06T05:15:24.418Z,99627.44
2023-03-06T05:17:52.573Z,99630.28
2023-03-06T05:20:19.525Z,99625.78
2023-03-06T05:22:46.509Z,99625.09
2023-03-06T05:25:13.721Z,99624.22
2023-03-06T05:27:41.162Z,99626.97
2023-03-06T05:30:17.369Z,99621.66
2023-03-06T05:32:44.556Z,99619.87
2023-03-06T05:35:20.034Z,99619.84
2023-03-06T05:37:47.812Z,99620.03
2023-03-06T05:40:16.242Z,99616.47
2023-03-06T05:42:43.472Z,99614.63
2023-03-06T05:45:11.111Z,99618.03
2023-03-06T05:47:38.344Z,99612.06
2023-03-06T05:50:09.774Z,99631.34
2023-03-06T05:52:41.448Z,99626.97
2023-03-06T05:55:10.825Z,99628.66
2023-03-06T05:57:37.818Z,99634.81
2023-03-06T06:00:06.836Z,99635.66
2023-03-06T06:02:33.878Z,99627.81
2023-03-06T06:05:13.071Z,99624.38
2023-03-06T06:07:41.162Z,99620.91
2023-03-06T06:10:08.904Z,99630.44
2023-03-06T06:12:36.175Z,99626.09
2023-03-06T06:15:05.662Z,99626.91
2023-03-06T06:17:33.541Z,99633.94
2023-03-06T06:20:00.671Z,99631.22
2023-03-06T06:22:27.698Z,99646.09
2023-03-06T06:24:54.790Z,99646.09
2023-03-06T06:27:21.909Z,99642.59
2023-03-06T06:29:52.697Z,99641.72
2023-03-06T06:32:20.114Z,99642.63
2023-03-06T06:34:47.415Z,99642.63
2023-03-06T06:37:15.151Z,99647.84
2023-03-06T06:39:42.061Z,99640.06
2023-03-06T06:42:29.327Z,99632.00
2023-03-06T06:44:57.310Z,99638.13
2023-03-06T06:47:26.115Z,99628.59
2023-03-06T06:49:54.965Z,99630.44
2023-03-06T06:52:23.368Z,99630.47
2023-03-06T06:54:52.645Z,99635.53
2023-03-06T06:57:19.689Z,99641.69
2023-03-06T06:59:46.838Z,99631.28
2023-03-06T07:02:16.641Z,99636.50
2023-03-06T07:05:00.309Z,99626.81
2023-03-06T07:07:30.286Z,99627.84
2023-03-06T07:09:59.412Z,99633.88
2023-03-06T07:12:29.198Z,99626.97
2023-03-06T07:14:58.629Z,99639.16
2023-03-06T07:17:25.625Z,99624.19
2023-03-06T07:19:53.019Z,99621.59
2023-03-06T07:22:19.962Z,99617.28
2023-03-06T07:24:46.886Z,99622.56
2023-03-06T07:27:13.882Z,99625.00
2023-03-06T07:29:43.349Z,99622.28
2023-03-06T07:32:12.156Z,99617.19
2023-03-06T07:34:39.228Z,99618.94
2023-03-06T07:37:08.306Z,99627.84
2023-03-06T07:39:35.474Z,99626.75
2023-03-06T07:42:05.682Z,99628.28
2023-03-06T07:44:37.942Z,99631.97
2023-03-06T07:47:06.505Z,99630.69
2023-03-06T07:49:39.632Z,99628.31
2023-03-06T07:52:06.811Z,99639.78
2023-03-06T07:54:35.403Z,99632.88
2023-03-06T07:57:03.489Z,99634.38
2023-03-06T07:59:30.897Z,99634.41
2023-03-06T08:01:58.243Z,99629.88
2023-03-06T08:04:26.464Z,99622.19
2023-03-06T08:06:57.769Z,99623.22
2023-03-06T08:09:27.719Z,99626.72
2023-03-06T08:11:54.694Z,99617.94
2023-03-06T08:14:25.652Z,99622.00
2023-03-06T08:16:56.229Z,99608.66
2023-03-06T08:19:23.576Z,99614.13
2023-03-06T08:21:50.902Z,99603.03
2023-03-06T08:24:18.956Z,99615.38
2023-03-06T08:26:51.080Z,99613.75
2023-03-06T08:29:18.630Z,99606.44
2023-03-06T08:31:55.524Z,99610.31
2023-03-06T08:34:27.288Z,99614.63
2023-03-06T08:39:35.242Z,99599.41
2023-03-06T08:42:02.330Z,99602.44
2023-03-06T08:44:29.383Z,99609.91
2023-03-06T08:46:56.437Z,99602.97
2023-03-06T08:49:24.055Z,99604.34
2023-03-06T08:51:54.493Z,99599.97
2023-03-06T08:54:21.658Z,99603.09
2023-03-06T08:56:48.917Z,99600.69
2023-03-06T08:59:15.942Z,99594.31
2023-03-06T09:01:44.099Z,99603.97
2023-03-06T09:04:12.670Z,99593.97
2023-03-06T09:06:42.564Z,99592.56
2023-03-06T09:09:10.817Z,99587.56
2023-03-06T09:11:40.759Z,99594.84
2023-03-06T09:14:07.952Z,99593.59
2023-03-06T09:16:35.167Z,99583.97
2023-03-06T09:19:13.342Z,99581.50
2023-03-06T09:21:52.304Z,99579.34
2023-03-06T09:24:19.645Z,99574.50
2023-03-06T09:26:49.389Z,99562.00
2023-03-06T09:29:17.739Z,99571.19
2023-03-06T09:31:45.612Z,99561.19
2023-03-06T09:34:12.925Z,99559.84
2023-03-06T09:36:55.518Z,99565.81
2023-03-06T09:39:25.414Z,99561.69
2023-03-06T09:41:53.673Z,99558.16
2023-03-06T09:44:32.666Z,99555.94
2023-03-06T09:47:38.924Z,99554.38
2023-03-06T09:50:15.903Z,99543.75
2023-03-06T09:53:10.894Z,99523.13
2023-03-06T09:55:42.606Z,99513.91
2023-03-06T09:58:18.493Z,99530.44
2023-03-06T10:01:06.830Z,99517.28
2023-03-06T10:03:49.069Z,99516.28
2023-03-06T10:06:52.813Z,99517.12
2023-03-06T10:09:42.382Z,99516.28
2023-03-06T10:12:36.434Z,99513.00
2023-03-06T10:15:20.152Z,99514.88
2023-03-06T10:17:51.079Z,99522.09
2023-03-06T10:20:23.821Z,99518.06
2023-03-06T10:23:29.124Z,99514.56
2023-03-06T10:26:13.351Z,99514.91
2023-03-06T10:28:59.568Z,99509.53
2023-03-06T10:31:31.795Z,99505.97
2023-03-06T10:34:05.874Z,99500.63
2023-03-06T10:36:32.957Z,99492.66
2023-03-06T10:39:00.832Z,99479.62
2023-03-06T10:41:35.527Z,99479.41
2023-03-06T10:44:09.606Z,99467.81
2023-03-06T10:46:45.263Z,99468.25
2023-03-06T10:49:15.526Z,99460.34
2023-03-06T10:51:57.276Z,99464.00
2023-03-06T10:54:25.424Z,99467.91
2023-03-06T10:56:52.449Z,99466.63
2023-03-06T10:59:27.419Z,99461.22
2023-03-06T11:02:14.567Z,99457.25
2023-03-06T11:04:50.411Z,99453.31
2023-03-06T11:07:29.544Z,99440.09
2023-03-06T11:10:19.760Z,99442.75
2023-03-06T11:13:23.592Z,99434.78
2023-03-06T11:16:04.257Z,99425.03
2023-03-06T11:18:36.360Z,99433.31
2023-03-06T11:21:07.557Z,99415.69
2023-03-06T11:23:46.963Z,99423.75
2023-03-06T11:26:17.002Z,99416.84
2023-03-06T11:29:19.096Z,99416.50
2023-03-06T11:32:07.869Z,99410.56
2023-03-06T11:34:50.426Z,99399.72
2023-03-06T11:37:33.188Z,99401.59
2023-03-06T11:40:10.669Z,99395.16
2023-03-06T11:43:00.714Z,99393.06
2023-03-06T11:45:40.648Z,99389.13
2023-03-06T11:48:17.804Z,99383.53
2023-03-06T11:50:53.261Z,99377.41
2023-03-06T11:53:30.977Z,99360.06
2023-03-06T11:56:05.251Z,99368.28
2023-03-06T11:59:00.503Z,99369.69
2023-03-06T12:01:52.230Z,99358.25
2023-03-06T12:04:53.534Z,99351.31
2023-03-06T12:07:31.736Z,99347.28
2023-03-06T12:10:23.950Z,99348.38
2023-03-06T12:13:21.133Z,99335.25
2023-03-06T12:16:18.288Z,99338.81
2023-03-06T12:19:12.076Z,99339.41
2023-03-06T12:21:58.023Z,99343.69
2023-03-06T12:24:56.474Z,99340.78
2023-03-06T12:27:37.450Z,99342.78
2023-03-06T12:30:33.092Z,99339.16
2023-03-06T12:33:24.423Z,99331.41
2023-03-06T12:36:33.924Z,99337.91
2023-03-06T12:39:24.426Z,99341.88
2023-03-06T12:42:23.754Z,99331.03
2023-03-06T12:45:20.322Z,99323.94
2023-03-06T12:47:51.905Z,99318.22
2023-03-06T12:50:32.645Z,99313.34
2023-03-06T12:53:04.667Z,99312.59
2023-03-06T12:56:02.755Z,99317.47
2023-03-06T12:58:30.121Z,99319.44
2023-03-06T13:01:07.843Z,99315.72
2023-03-06T13:03:53.057Z,99309.56
2023-03-06T13:06:54.573Z,99309.69
2023-03-06T13:09:49.617Z,99305.47
2023-03-06T13:12:41.684Z,99302.25
2023-03-06T13:15:34.289Z,99307.41
2023-03-06T13:18:04.020Z,99301.44
2023-03-06T13:21:02.376Z,99294.34
2023-03-06T13:23:37.910Z,99310.56
2023-03-06T13:26:32.296Z,99313.47
2023-03-06T13:28:59.555Z,99306.87
2023-03-06T13:31:40.268Z,99308.97
2023-03-06T13:35:01.316Z,99315.13
2023-03-06T13:37:34.426Z,99308.66
2023-03-06T13:40:14.434Z,99311.19
2023-03-06T13:42:44.527Z,99309.34
2023-03-06T13:45:33.787Z,99307.56
2023-03-06T13:48:37.539Z,99299.81
2023-03-06T13:50:50.374Z,99299.66
2023-03-06T13:53:41.017Z,99303.56
2023-03-06T13:56:46.010Z,99300.31
2023-03-06T13:59:36.720Z,99296.66
2023-03-06T14:02:30.863Z,99293.53
2023-03-06T14:05:00.171Z,99299.59
2023-03-06T14:07:44.654Z,99298.59
2023-03-06T14:10:14.829Z,99288.28
2023-03-06T14:12:52.971Z,99293.69
2023-03-06T14:15:31.860Z,99284.69
2023-03-06T14:18:14.394Z,99288.53
2023-03-06T14:20:52.291Z,99289.38
2023-03-06T14:23:23.968Z,99290.56
2023-03-06T14:26:27.108Z,99291.47
2023-03-06T14:29:00.411Z,99275.97
2023-03-06T14:31:43.128Z,99285.31
2023-03-06T14:34:28.874Z,99284.91
2023-03-06T14:37:19.055Z,99284.34
2023-03-06T14:39:49.277Z,99278.63
2023-03-06T14:42:26.186Z,99285.59
2023-03-06T14:45:14.684Z,99278.75
2023-03-06T14:47:57.641Z,99284.03
2023-03-06T14:50:33.287Z,99275.84
2023-03-06T14:53:17.214Z,99271.34
2023-03-06T14:56:02.267Z,99268.78
2023-03-06T14:58:45.273Z,99274.00
2023-03-06T15:01:13.905Z,99267.59
2023-03-06T15:03:48.694Z,99278.06
2023-03-06T15:06:23.116Z,99273.53
2023-03-06T15:09:24.855Z,99272.81
2023-03-06T15:12:30.060Z,99273.75
2023-03-06T15:14:58.974Z,99276.41
2023-03-06T15:17:30.396Z,99274.72
2023-03-06T15:19:59.769Z,99283.00
2023-03-06T15:22:41.461Z,99273.59
2023-03-06T15:25:26.887Z,99276.87
2023-03-06T15:28:28.853Z,99285.03
2023-03-06T15:31:11.266Z,99276.56
2023-03-06T15:33:38.607Z,99284.47
2023-03-06T15:36:18.811Z,99269.50
2023-03-06T15:38:47.200Z,99275.84
2023-03-06T15:41:42.290Z,99260.00
2023-03-06T15:44:13.733Z,99265.78
2023-03-06T15:46:42.583Z,99253.75
2023-03-06T15:49:19.457Z,99259.19
2023-03-06T15:51:46.558Z,99255.44
2023-03-06T15:54:13.783Z,99263.56
2023-03-06T15:56:43.879Z,99253.00
2023-03-06T15:59:20.146Z,99261.22
2023-03-06T16:01:49.292Z,99257.22
2023-03-06T16:04:17.301Z,99250.12
2023-03-06T16:06:48.118Z,99256.75
2023-03-06T16:09:15.263Z,99251.88
2023-03-06T16:11:45.045Z,99263.53
2023-03-06T16:14:18.945Z,99257.28
2023-03-06T16:16:46.187Z,99264.91
2023-03-06T16:19:26.036Z,99256.84
2023-03-06T16:21:54.697Z,99251.00
2023-03-06T16:24:22.358Z,99252.38
2023-03-06T16:26:51.492Z,99254.69
2023-03-06T16:29:23.235Z,99252.34
2023-03-06T16:31:50.699Z,99246.81
2023-03-06T16:34:19.965Z,99255.53
2023-03-06T16:36:48.487Z,99265.50
2023-03-06T16:39:17.678Z,99251.00
2023-03-06T16:41:46.093Z,99253.75
2023-03-06T16:44:13.739Z,99262.53
2023-03-06T16:46:46.783Z,99262.66
2023-03-06T16:49:19.233Z,99262.75
2023-03-06T16:51:46.308Z,99259.28
2023-03-06T16:54:13.550Z,99250.38
2023-03-06T16:56:40.641Z,99262.69
2023-03-06T16:59:07.788Z,99258.25
2023-03-06T17:01:34.838Z,99257.31
2023-03-06T17:04:02.084Z,99253.97
2023-03-06T17:06:30.584Z,99254.69
2023-03-06T17:09:00.336Z,99252.50
2023-03-06T17:11:28.490Z,99262.56
2023-03-06T17:13:55.540Z,99255.66
2023-03-06T17:16:23.352Z,99269.00
2023-03-06T17:18:50.409Z,99272.00
2023-03-06T17:21:17.828Z,99275.13
2023-03-06T17:23:45.554Z,99265.66
2023-03-06T17:26:19.291Z,99267.69
2023-03-06T17:28:47.058Z,99272.13
2023-03-06T17:31:22.470Z,99276.13
2023-03-06T17:33:51.821Z,99281.31
2023-03-06T17:36:20.836Z,99278.59
2023-03-06T17:38:50.168Z,99288.81
2023-03-06T17:41:17.477Z,99281.09
2023-03-06T17:43:44.422Z,99285.16
2023-03-06T17:46:13.812Z,99283.69
2023-03-06T17:48:42.915Z,99287.38
2023-03-06T17:51:09.984Z,99290.00
2023-03-06T17:53:37.723Z,99288.62
2023-03-06T17:56:06.923Z,99300.56
2023-03-06T17:58:34.888Z,99285.16
2023-03-06T18:01:10.130Z,99298.13
2023-03-06T18:03:38.697Z,99294.22
2023-03-06T18:06:09.669Z,99294.41
2023-03-06T18:08:38.190Z,99301.06
2023-03-06T18:11:08.432Z,99296.75
2023-03-06T18:13:38.521Z,99301.97
2023-03-06T18:16:07.269Z,99302.13
2023-03-06T18:18:34.699Z,99302.38
2023-03-06T18:21:10.420Z,99298.97
2023-03-06T18:23:39.016Z,99305.38
2023-03-06T18:26:24.478Z,99311.19
2023-03-06T18:28:59.346Z,99306.59
2023-03-06T18:31:35.644Z,99304.28
2023-03-06T18:34:06.767Z,99313.59
2023-03-06T18:36:34.531Z,99305.59
2023-03-06T18:39:04.051Z,99324.81
2023-03-06T18:41:32.002Z,99315.66
2023-03-06T18:44:01.060Z,99329.56
2023-03-06T18:46:33.957Z,99333.91
2023-03-06T18:49:01.854Z,99333.81
2023-03-06T18:51:29.123Z,99335.47
2023-03-06T18:54:00.941Z,99335.31
2023-03-06T18:56:28.411Z,99346.00
2023-03-06T18:58:56.049Z,99345.03
2023-03-06T19:01:23.397Z,99356.69
2023-03-06T19:03:50.657Z,99355.19
2023-03-06T19:06:18.410Z,99364.19
2023-03-06T19:08:45.533Z,99359.00
2023-03-06T19:11:17.584Z,99370.81
2023-03-06T19:13:45.102Z,99365.84
2023-03-06T19:16:21.045Z,99365.69
2023-03-06T19:18:48.218Z,99364.88
2023-03-06T19:21:18.664Z,99358.97
2023-03-06T19:23:46.197Z,99364.53
2023-03-06T19:26:14.038Z,99368.34
2023-03-06T19:28:42.649Z,99366.75
2023-03-06T19:31:21.757Z,99372.03
2023-03-06T19:33:50.265Z,99370.25
2023-03-06T19:36:18.696Z,99381.22
2023-03-06T19:38:50.535Z,99383.00
2023-03-06T19:41:17.720Z,99391.84
2023-03-06T19:43:44.971Z,99399.97
2023-03-06T19:46:15.297Z,99399.03
2023-03-06T19:48:43.056Z,99406.75
2023-03-06T19:51:11.769Z,99399.72
2023-03-06T19:53:43.325Z,99403.22
2023-03-06T19:56:19.808Z,99399.13
2023-03-06T19:58:49.324Z,99386.91
2023-03-06T20:01:22.321Z,99384.25
2023-03-06T20:03:51.384Z,99386.13
2023-03-06T20:06:20.125Z,99388.63
2023-03-06T20:08:51.561Z,99379.88
2023-03-06T20:11:32.903Z,99393.13
2023-03-06T20:14:02.217Z,99400.84
2023-03-06T20:16:34.606Z,99397.25
2023-03-06T20:19:11.355Z,99393.75
2023-03-06T20:21:38.679Z,99400.66
2023-03-06T20:24:08.863Z,99405.59
2023-03-06T20:26:59.977Z,99405.78
2023-03-06T20:29:37.110Z,99419.47
2023-03-06T20:32:04.565Z,99412.06
2023-03-06T20:34:31.737Z,99409.31
2023-03-06T20:36:59.259Z,99394.97
2023-03-06T20:39:27.120Z,99398.69
2023-03-06T20:41:54.318Z,99395.47
2023-03-06T20:44:21.544Z,99405.81
2023-03-06T20:46:49.701Z,99399.28
2023-03-06T20:49:16.715Z,99396.53
2023-03-06T20:51:43.742Z,99397.59
2023-03-06T20:54:13.776Z,99399.41
2023-03-06T20:56:41.751Z,99395.97
2023-03-06T20:59:11.864Z,99392.59
2023-03-06T21:01:41.902Z,99391.97
2023-03-06T21:04:14.035Z,99392.25
2023-03-06T21:06:44.667Z,99389.56
2023-03-06T21:09:11.764Z,99402.66
2023-03-06T21:11:39.474Z,99405.69
2023-03-06T21:14:07.252Z,99403.97
2023-03-06T21:16:34.447Z,99404.34
2023-03-06T21:19:01.961Z,99400.50
2023-03-06T21:21:34.727Z,99397.78
2023-03-06T21:24:02.797Z,99393.69
2023-03-06T21:26:34.078Z,99385.00
2023-03-06T21:29:03.114Z,99383.59
2023-03-06T21:31:31.509Z,99381.66
2023-03-06T21:33:59.286Z,99391.25
2023-03-06T21:36:27.082Z,99394.59
2023-03-06T21:38:54.971Z,99404.00
2023-03-06T21:41:25.682Z,99402.84
2023-03-06T21:44:00.336Z,99400.44
2023-03-06T21:46:28.180Z,99399.13
2023-03-06T21:48:56.652Z,99398.97
2023-03-06T21:51:25.313Z,99393.03
2023-03-06T21:53:55.349Z,99389.22
2023-03-06T21:56:26.030Z,99384.09
2023-03-06T21:59:13.265Z,99383.19
2023-03-06T22:01:42.778Z,99392.63
2023-03-06T22:04:10.339Z,99393.50
2023-03-06T22:06:40.582Z,99390.87
2023-03-06T22:09:08.153Z,99382.94
2023-03-06T22:11:37.446Z,99387.56
2023-03-06T22:14:05.400Z,99386.78
2023-03-06T22:16:33.053Z,99390.13
2023-03-06T22:19:00.162Z,99390.87
2023-03-06T22:21:27.393Z,99387.44
2023-03-06T22:23:59.873Z,99392.16
2023-03-06T22:26:28.614Z,99383.63
2023-03-06T22:28:56.024Z,99385.25
2023-03-06T22:31:27.380Z,99384.03
2023-03-06T22:33:56.887Z,99385.97
2023-03-06T22:36:24.803Z,99377.66
2023-03-06T22:38:57.077Z,99382.44
2023-03-06T22:41:27.087Z,99391.78
2023-03-06T22:43:58.762Z,99382.63
2023-03-06T22:46:26.910Z,99386.59
2023-03-06T22:48:57.147Z,99391.53
2023-03-06T22:51:26.259Z,99386.44
2023-03-06T22:53:53.506Z,99379.03
2023-03-06T22:56:22.178Z,99379.88
2023-03-06T22:58:49.852Z,99376.59
2023-03-06T23:01:23.504Z,99380.25
2023-03-06T23:03:53.913Z,99389.03
2023-03-06T23:06:46.949Z,99393.44
2023-03-06T23:09:19.535Z,99380.59
2023-03-06T23:11:46.979Z,99383.00
2023-03-06T23:14:19.230Z,99372.28
2023-03-06T23:16:46.819Z,99376.34
2023-03-06T23:19:15.811Z,99366.63
2023-03-06T23:21:44.144Z,99370.78
2023-03-06T23:24:11.654Z,99397.88
2023-03-06T23:26:39.007Z,99404.28
2023-03-06T23:29:05.927Z,99407.59
2023-03-06T23:31:33.007Z,99421.28
2023-03-06T23:34:03.703Z,99413.38
2023-03-06T23:36:33.355Z,99419.25
2023-03-06T23:39:00.485Z,99420.06
2023-03-06T23:41:27.659Z,99421.94
2023-03-06T23:43:55.471Z,99403.06
2023-03-06T23:46:22.953Z,99404.22
2023-03-06T23:48:51.065Z,99422.28
2023-03-06T23:51:21.664Z,99415.09
2023-03-06T23:54:00.006Z,99414.22
2023-03-06T23:56:28.549Z,99422.56
2023-03-06T23:58:56.785Z,99438.13
